Time;durP1;ratioP1;P1;durP2;ratioP2;P2;SDS_P1;SDS_P2;PMS_P1;PMS_P2;Temp;Humidity;BMP_temperature;BMP_pressure;BME280_temperature;BME280_humidity;BME280_pressure;Samples;Min_cycle;Max_cycle;Signal;HPM_P1;HPM_P2
2021/11/15 00:02:16;;;;;;;26.15;15.57;;;;;;;8.53;89.11;102890.81;5024343;28;20333;-85
2021/11/15 00:04:41;;;;;;;32.53;18.10;;;;;;;8.55;89.68;102891.69;5049896;28;20037;-85
2021/11/15 00:07:07;;;;;;;33.70;18.88;;;;;;;8.54;90.13;102884.72;5003366;28;20044;-85
2021/11/15 00:09:33;;;;;;;27.02;17.45;;;;;;;8.53;90.14;102892.53;5022449;28;20033;-85
2021/11/15 00:12:00;;;;;;;30.40;18.08;;;;;;;8.52;89.98;102885.59;5041115;28;20025;-85
2021/11/15 00:14:25;;;;;;;30.65;17.70;;;;;;;8.51;89.45;102889.94;5023501;28;20107;-85
2021/11/15 00:16:51;;;;;;;32.15;19.25;;;;;;;8.53;89.63;102892.53;5024444;28;20224;-85
2021/11/15 00:19:16;;;;;;;28.20;16.60;;;;;;;8.50;89.21;102892.56;5024547;28;20037;-85
2021/11/15 00:21:42;;;;;;;30.63;18.40;;;;;;;8.50;88.60;102889.94;5040305;28;20072;-85
2021/11/15 00:24:07;;;;;;;39.20;19.60;;;;;;;8.52;89.51;102890.81;5025912;28;20063;-85
2021/11/15 00:26:33;;;;;;;31.55;18.75;;;;;;;8.51;90.31;102887.31;5023969;28;20248;-85
2021/11/15 00:28:58;;;;;;;32.35;18.15;;;;;;;8.48;89.28;102892.56;5026609;28;20560;-85
2021/11/15 00:31:24;;;;;;;32.70;19.70;;;;;;;8.48;89.78;102886.44;5040337;28;20076;-85
2021/11/15 00:33:50;;;;;;;32.15;18.02;;;;;;;8.47;89.87;102892.56;5020046;28;20238;-85
2021/11/15 00:36:15;;;;;;;33.88;18.52;;;;;;;8.45;89.44;102884.72;5021339;28;20064;-85
2021/11/15 00:38:41;;;;;;;30.33;18.77;;;;;;;8.40;88.71;102882.06;5020224;28;20099;-85
2021/11/15 00:41:06;;;;;;;31.58;18.67;;;;;;;8.44;89.74;102883.84;5022471;28;20370;-85
2021/11/15 00:43:32;;;;;;;33.17;18.98;;;;;;;8.42;89.18;102882.97;5023369;28;20037;-85
2021/11/15 00:45:57;;;;;;;35.15;19.20;;;;;;;8.38;87.84;102880.31;5020370;28;20081;-85
2021/11/15 00:48:23;;;;;;;31.95;18.58;;;;;;;8.38;87.73;102886.41;5007637;28;20047;-85
2021/11/15 00:50:48;;;;;;;37.65;19.40;;;;;;;8.38;88.40;102883.78;5023646;28;20328;-85
2021/11/15 00:53:14;;;;;;;36.20;18.92;;;;;;;8.40;89.32;102887.31;5023825;28;20033;-85
2021/11/15 00:55:39;;;;;;;32.20;18.23;;;;;;;8.39;89.62;102884.69;5040070;28;20033;-85
2021/11/15 00:58:06;;;;;;;31.83;19.48;;;;;;;8.39;89.67;102872.50;5040411;28;20040;-85
2021/11/15 01:00:31;;;;;;;36.25;19.60;;;;;;;8.40;89.88;102868.13;5023439;28;20108;-85
2021/11/15 01:02:57;;;;;;;36.63;20.08;;;;;;;8.39;90.01;102877.72;5045827;28;20036;-85
2021/11/15 01:05:23;;;;;;;33.30;19.50;;;;;;;8.40;90.64;102882.06;5057586;28;20040;-85
2021/11/15 01:07:49;;;;;;;35.15;19.75;;;;;;;8.38;90.64;102878.56;5030832;28;20023;-85
2021/11/15 01:10:16;;;;;;;36.25;19.33;;;;;;;8.36;90.13;102871.63;5023822;28;20044;-85
2021/11/15 01:12:42;;;;;;;33.17;19.02;;;;;;;8.36;89.99;102871.63;5022991;28;20055;-85
2021/11/15 01:15:12;;;;;;;29.75;18.48;;;;;;;8.35;89.98;102875.97;5024067;28;20064;-85
2021/11/15 01:17:37;;;;;;;31.23;18.80;;;;;;;8.37;90.16;102873.38;5039273;28;20049;-85
2021/11/15 01:20:04;;;;;;;30.15;18.55;;;;;;;8.35;90.05;102875.97;5007186;28;20060;-85
2021/11/15 01:22:30;;;;;;;29.63;17.55;;;;;;;8.35;90.07;102872.47;5054632;28;20071;-85
2021/11/15 01:24:55;;;;;;;29.55;18.23;;;;;;;8.33;90.03;102872.50;5055625;28;20052;-85
2021/11/15 01:27:21;;;;;;;34.60;18.88;;;;;;;8.31;89.40;102868.13;5070134;28;20020;-85
2021/11/15 01:29:46;;;;;;;31.48;18.33;;;;;;;8.32;89.81;102862.91;5023492;28;20033;-85
2021/11/15 01:32:12;;;;;;;31.02;18.55;;;;;;;8.32;90.14;102862.91;5039574;28;20306;-85
2021/11/15 01:34:37;;;;;;;29.55;18.48;;;;;;;8.32;90.28;102862.03;5039387;28;20309;-85
2021/11/15 01:37:03;;;;;;;30.73;18.42;;;;;;;8.30;90.26;102862.03;5039600;28;20201;-85
2021/11/15 01:39:29;;;;;;;28.13;17.58;;;;;;;8.28;89.98;102858.56;5022941;28;20033;-85
2021/11/15 01:41:54;;;;;;;32.70;18.15;;;;;;;8.32;90.32;102856.81;5023527;28;20070;-85
2021/11/15 01:44:20;;;;;;;29.38;17.40;;;;;;;8.33;90.46;102861.16;5022039;28;20104;-85
2021/11/15 01:46:45;;;;;;;27.98;17.50;;;;;;;8.31;89.33;102860.28;5056396;28;20048;-85
2021/11/15 01:49:11;;;;;;;29.73;18.35;;;;;;;8.32;89.96;102862.91;5057316;28;20028;-85
2021/11/15 01:51:36;;;;;;;26.95;16.98;;;;;;;8.29;89.34;102852.44;5022175;28;20033;-85
2021/11/15 01:54:01;;;;;;;29.00;17.13;;;;;;;8.27;89.50;102849.84;5022870;28;20228;-85
2021/11/15 01:56:27;;;;;;;28.83;16.10;;;;;;;8.25;89.07;102854.19;5038969;28;20057;-85
2021/11/15 01:58:52;;;;;;;26.23;16.02;;;;;;;8.24;89.26;102862.91;5039261;28;20079;-85
2021/11/15 02:01:18;;;;;;;25.95;16.42;;;;;;;8.23;89.56;102865.50;5037610;28;20033;-85
2021/11/15 02:03:43;;;;;;;27.50;16.55;;;;;;;8.21;89.22;102860.28;5039471;28;20041;-85
2021/11/15 02:06:10;;;;;;;30.50;16.35;;;;;;;8.19;89.04;102864.63;5039189;28;20220;-84
2021/11/15 02:08:37;;;;;;;24.98;15.82;;;;;;;8.19;88.99;102862.03;5022446;28;20060;-85
2021/11/15 02:11:03;;;;;;;24.83;15.90;;;;;;;8.17;88.97;102860.28;5023098;28;20043;-84
2021/11/15 02:13:29;;;;;;;27.77;16.70;;;;;;;8.17;89.27;102862.91;5022687;28;20061;-85
2021/11/15 02:15:54;;;;;;;28.25;16.60;;;;;;;8.18;89.02;102860.25;5039117;28;20047;-85
2021/11/15 02:18:20;;;;;;;29.02;16.70;;;;;;;8.18;89.38;102862.88;5039187;28;20041;-85
2021/11/15 02:20:57;;;;;;;29.00;15.80;;;;;;;8.19;89.71;102859.41;5039828;28;20032;-85
2021/11/15 02:23:23;;;;;;;26.50;16.35;;;;;;;8.15;89.60;102857.66;5038986;28;20041;-85
2021/11/15 02:25:49;;;;;;;28.63;16.50;;;;;;;8.16;89.66;102851.56;5038993;28;20245;-85
2021/11/15 02:28:15;;;;;;;27.45;16.50;;;;;;;8.15;89.67;102857.66;5022781;28;20224;-85
2021/11/15 02:30:40;;;;;;;31.25;16.88;;;;;;;8.13;89.93;102861.13;5038748;28;20033;-85
2021/11/15 02:33:06;;;;;;;25.52;16.27;;;;;;;8.12;89.40;102859.41;5054114;28;20268;-85
2021/11/15 02:35:32;;;;;;;26.33;15.95;;;;;;;8.12;89.09;102860.28;5038922;28;20336;-85
2021/11/15 02:37:57;;;;;;;30.60;16.75;;;;;;;8.13;89.96;102859.41;5060655;28;20398;-85
2021/11/15 02:40:25;;;;;;;31.88;15.82;;;;;;;8.11;89.39;102852.44;5061159;28;20032;-85
2021/11/15 02:42:50;;;;;;;29.17;17.35;;;;;;;8.15;90.19;102848.94;5026516;28;20032;-85
2021/11/15 02:45:16;;;;;;;26.88;15.40;;;;;;;8.13;89.65;102855.91;5026485;28;20037;-85
2021/11/15 02:47:42;;;;;;;25.45;14.95;;;;;;;8.11;88.59;102850.69;5041964;28;20263;-85
2021/11/15 02:50:09;;;;;;;28.45;17.23;;;;;;;8.10;89.13;102850.72;5059884;28;20045;-85
2021/11/15 02:52:35;;;;;;;26.60;15.23;;;;;;;8.07;89.05;102839.38;5025726;28;20362;-85
2021/11/15 02:55:01;;;;;;;22.23;14.68;;;;;;;8.08;88.66;102843.72;5010128;28;20032;-85
2021/11/15 02:57:27;;;;;;;25.67;16.35;;;;;;;8.07;88.87;102841.13;5042275;28;20143;-85
2021/11/15 02:59:52;;;;;;;23.60;15.23;;;;;;;8.06;88.61;102849.81;5026211;28;20067;-85
2021/11/15 03:02:22;;;;;;;27.73;16.77;;;;;;;8.07;88.96;102843.72;5042284;28;20100;-85
2021/11/15 03:04:47;;;;;;;26.52;17.52;;;;;;;8.05;89.57;102843.72;5042230;28;20067;-85
2021/11/15 03:07:13;;;;;;;23.00;15.95;;;;;;;8.06;88.86;102844.59;5026135;28;20029;-85
2021/11/15 03:09:38;;;;;;;27.85;17.05;;;;;;;8.07;89.42;102841.13;5041674;28;20047;-85
2021/11/15 03:12:04;;;;;;;27.13;15.55;;;;;;;8.08;89.69;102854.16;5042872;28;20036;-85
2021/11/15 03:14:29;;;;;;;27.63;16.33;;;;;;;8.06;89.14;102845.47;5058210;28;20036;-84
2021/11/15 03:16:55;;;;;;;29.73;16.50;;;;;;;8.07;89.42;102851.56;5060025;28;20324;-85
2021/11/15 03:19:20;;;;;;;24.85;15.57;;;;;;;8.07;89.36;102851.56;5025170;28;20130;-85
2021/11/15 03:21:46;;;;;;;30.38;16.33;;;;;;;8.09;89.92;102855.03;5042308;28;20029;-85
2021/11/15 03:24:11;;;;;;;27.52;16.17;;;;;;;8.08;89.64;102859.38;5009318;28;20049;-85
2021/11/15 03:26:37;;;;;;;25.58;15.40;;;;;;;8.05;88.78;102858.50;5024922;28;20041;-84
2021/11/15 03:29:03;;;;;;;21.05;14.77;;;;;;;8.06;88.71;102855.91;5042566;28;20275;-85
2021/11/15 03:31:30;;;;;;;24.85;15.43;;;;;;;8.05;88.37;102861.97;5024919;28;20218;-88
2021/11/15 03:34:04;;;;;;;23.02;14.95;;;;;;;8.04;88.29;102857.66;5025727;28;20239;-88
2021/11/15 03:36:29;;;;;;;22.23;14.93;;;;;;;8.05;88.64;102853.28;5025953;28;20029;-87
2021/11/15 03:38:55;;;;;;;20.45;14.07;;;;;;;8.02;88.44;102848.06;5041897;28;20290;-88
2021/11/15 03:41:20;;;;;;;26.45;15.27;;;;;;;8.04;88.27;102846.31;5009318;28;20360;-88
2021/11/15 03:43:46;;;;;;;24.92;14.70;;;;;;;8.04;89.23;102846.31;5041580;28;20037;-87
2021/11/15 03:46:11;;;;;;;24.90;14.88;;;;;;;8.04;89.01;102844.59;5041412;28;20347;-88
2021/11/15 03:48:37;;;;;;;20.75;13.70;;;;;;;8.05;89.41;102853.28;5040123;28;20033;-88
2021/11/15 03:51:02;;;;;;;26.02;14.90;;;;;;;8.04;89.08;102857.66;5042073;28;20239;-88
2021/11/15 03:53:35;;;;;;;19.77;13.52;;;;;;;8.01;88.29;102848.94;5041104;28;20259;-88
2021/11/15 03:56:01;;;;;;;26.40;15.13;;;;;;;8.02;nan;102848.94;5031865;28;20045;-88
2021/11/15 03:58:27;;;;;;;23.67;14.13;;;;;;;7.99;89.13;102856.75;5039943;28;20041;-88
2021/11/15 04:00:53;;;;;;;23.00;13.98;;;;;;;7.98;88.84;102860.22;5041362;28;20344;-87
2021/11/15 04:03:31;;;;;;;20.90;14.05;;;;;;;7.98;88.39;102861.97;5025084;28;20065;-88
2021/11/15 04:06:00;;;;;;;22.80;14.43;;;;;;;7.97;88.52;102855.03;5026419;28;20438;-88
2021/11/15 04:08:26;;;;;;;23.98;14.45;;;;;;;7.93;87.83;102850.66;5041445;28;20017;-88
2021/11/15 04:10:51;;;;;;;23.27;13.63;;;;;;;7.94;87.80;102855.00;5008731;28;20043;-88
2021/11/15 04:13:31;;;;;;;25.05;14.90;;;;;;;7.94;88.63;102852.41;5041846;28;20029;-88
2021/11/15 04:16:00;;;;;;;23.35;14.35;;;;;;;7.93;88.83;102854.16;5041394;28;20037;-88
2021/11/15 04:18:27;;;;;;;25.05;14.63;;;;;;;7.92;88.93;102855.00;5030093;28;20255;-88
2021/11/15 04:20:53;;;;;;;22.65;14.20;;;;;;;7.91;89.33;102855.84;5008604;28;20033;-88
2021/11/15 04:23:18;;;;;;;29.95;16.08;;;;;;;7.93;89.38;102855.88;5056355;28;20094;-88
2021/11/15 04:25:44;;;;;;;25.02;15.13;;;;;;;7.90;89.18;102848.91;5058635;28;20600;-88
2021/11/15 04:28:09;;;;;;;25.70;15.05;;;;;;;7.90;88.91;102859.34;5024493;28;20209;-87
2021/11/15 04:30:35;;;;;;;25.83;15.75;;;;;;;7.91;89.24;102855.84;5040991;28;20040;-88
2021/11/15 04:33:01;;;;;;;25.23;14.57;;;;;;;7.90;89.13;102855.88;5058241;28;20221;-88
2021/11/15 04:35:26;;;;;;;24.75;14.57;;;;;;;7.87;88.54;102856.72;5040572;28;20079;-88
2021/11/15 04:37:52;;;;;;;22.05;13.70;;;;;;;7.87;88.75;102852.38;5007953;28;20041;-88
2021/11/15 04:40:17;;;;;;;23.77;15.20;;;;;;;7.86;88.25;102850.66;5024392;28;20048;-88
2021/11/15 04:42:43;;;;;;;26.83;14.40;;;;;;;7.85;88.44;102851.50;5020152;28;20040;-87
2021/11/15 04:45:09;;;;;;;23.55;14.00;;;;;;;7.86;88.82;102850.66;5024400;28;20232;-88
2021/11/15 04:47:35;;;;;;;27.05;15.13;;;;;;;7.83;88.53;102853.22;5023987;28;20036;-88
2021/11/15 04:50:00;;;;;;;22.60;13.65;;;;;;;7.83;88.44;102848.03;5040555;28;20041;-88
2021/11/15 04:52:26;;;;;;;25.50;13.75;;;;;;;7.83;88.32;102850.63;5007339;28;20040;-88
2021/11/15 04:54:51;;;;;;;25.95;14.77;;;;;;;7.83;88.75;102852.38;5063168;28;20367;-88
2021/11/15 04:57:18;;;;;;;26.33;14.88;;;;;;;7.84;89.12;102849.78;5004235;28;20060;-88
2021/11/15 04:59:44;;;;;;;26.40;14.85;;;;;;;7.85;89.65;102853.25;5017052;28;20036;-87
2021/11/15 05:02:10;;;;;;;27.08;14.88;;;;;;;7.84;89.23;102859.31;5007789;28;20041;-88
2021/11/15 05:04:35;;;;;;;27.83;14.48;;;;;;;7.81;88.96;102857.59;5039654;28;20033;-88
2021/11/15 05:07:01;;;;;;;26.75;14.50;;;;;;;7.81;89.19;102865.41;5040674;28;20039;-87
2021/11/15 05:09:26;;;;;;;27.05;15.55;;;;;;;7.84;89.95;102857.59;5006820;28;20025;-87
2021/11/15 05:11:51;;;;;;;29.50;15.48;;;;;;;7.84;90.32;102862.81;5058048;28;20296;-87
2021/11/15 05:14:17;;;;;;;28.10;15.18;;;;;;;7.85;89.88;102861.94;5040408;28;20041;-88
2021/11/15 05:16:42;;;;;;;26.67;14.98;;;;;;;7.84;89.93;102860.22;5039906;28;20044;-88
2021/11/15 05:19:08;;;;;;;30.08;16.30;;;;;;;7.84;89.93;102849.78;5023501;28;20216;-88
2021/11/15 05:21:33;;;;;;;28.25;15.15;;;;;;;7.83;90.08;102853.22;5023232;28;20131;-88
2021/11/15 05:23:59;;;;;;;34.45;16.92;;;;;;;7.83;90.24;102848.03;5057852;28;20044;-87
2021/11/15 05:26:24;;;;;;;32.67;16.80;;;;;;;7.82;90.26;102848.91;5038813;28;20044;-88
2021/11/15 05:28:51;;;;;;;27.08;14.82;;;;;;;7.82;90.41;102850.63;5038486;28;20029;-88
2021/11/15 05:31:16;;;;;;;26.35;14.63;;;;;;;7.79;90.65;102854.09;5024002;28;20098;-88
2021/11/15 05:33:42;;;;;;;27.92;15.20;;;;;;;7.81;90.59;102857.59;5023058;28;20044;-87
2021/11/15 05:36:07;;;;;;;27.02;14.93;;;;;;;7.82;91.07;102856.72;5058114;28;20037;-88
2021/11/15 05:38:33;;;;;;;26.90;13.48;;;;;;;7.79;90.29;102855.84;5023201;28;20263;-87
2021/11/15 05:40:58;;;;;;;19.88;12.38;;;;;;;7.80;90.39;102862.78;5023093;28;20066;-88
2021/11/15 05:43:23;;;;;;;21.58;13.38;;;;;;;7.80;90.55;102862.78;5023281;28;20037;-88
2021/11/15 05:45:49;;;;;;;20.75;12.45;;;;;;;7.77;90.05;102866.28;5022110;28;20333;-87
2021/11/15 05:48:15;;;;;;;22.00;13.45;;;;;;;7.75;89.63;102865.41;5023523;28;20048;-88
2021/11/15 05:50:41;;;;;;;22.80;12.60;;;;;;;7.75;90.15;102865.41;5022490;28;20063;-87
2021/11/15 05:53:06;;;;;;;25.52;13.82;;;;;;;7.75;90.45;102875.84;5039355;28;20037;-88
2021/11/15 05:55:32;;;;;;;23.52;13.02;;;;;;;7.73;90.41;102869.75;5039558;28;20275;-87
2021/11/15 05:57:57;;;;;;;21.05;12.40;;;;;;;7.72;89.78;102869.72;5023233;28;20024;-87
2021/11/15 06:00:24;;;;;;;19.67;12.20;;;;;;;7.68;89.41;102863.63;5068697;28;20037;-88
2021/11/15 06:02:50;;;;;;;19.70;11.57;;;;;;;7.63;87.70;102870.56;5032889;28;20332;-87
2021/11/15 06:05:15;;;;;;;23.33;12.52;;;;;;;7.65;88.40;102868.81;5023657;28;20095;-87
2021/11/15 06:07:41;;;;;;;19.50;11.73;;;;;;;7.65;89.44;102869.69;5038744;28;20045;-87
2021/11/15 06:10:07;;;;;;;25.63;12.77;;;;;;;7.67;90.28;102877.53;5023713;28;20043;-88
2021/11/15 06:12:32;;;;;;;24.42;13.10;;;;;;;7.64;90.35;102872.28;5022299;28;20321;-87
2021/11/15 06:14:58;;;;;;;24.95;13.48;;;;;;;7.65;90.04;102877.50;5039743;28;20236;-87
2021/11/15 06:17:23;;;;;;;20.85;13.10;;;;;;;7.65;90.06;102879.25;5038653;28;20044;-87
2021/11/15 06:19:48;;;;;;;19.27;12.13;;;;;;;7.62;89.81;102881.84;5072410;28;20036;-87
2021/11/15 06:22:14;;;;;;;19.70;12.88;;;;;;;7.63;90.19;102878.38;5053183;28;20317;-88
2021/11/15 06:24:41;;;;;;;26.17;13.60;;;;;;;7.63;90.26;102883.59;5022773;28;20031;-87
2021/11/15 06:27:07;;;;;;;21.52;13.15;;;;;;;7.62;90.10;102879.22;5039496;28;20336;-87
2021/11/15 06:29:33;;;;;;;22.45;14.05;;;;;;;7.59;89.53;102879.25;5022602;28;20029;-87
2021/11/15 06:31:58;;;;;;;25.98;13.55;;;;;;;7.60;89.52;102886.19;5030671;28;20262;-87
2021/11/15 06:34:23;;;;;;;21.77;13.25;;;;;;;7.60;89.75;102880.97;5066877;28;20044;-87
2021/11/15 06:36:49;;;;;;;22.13;14.90;;;;;;;7.62;90.74;102887.06;5035977;28;20033;-87
2021/11/15 06:39:14;;;;;;;29.60;14.65;;;;;;;7.63;91.22;102875.78;5038995;28;20322;-87
2021/11/15 06:41:42;;;;;;;24.05;14.80;;;;;;;7.62;90.92;102879.22;5020316;28;20033;-88
2021/11/15 06:44:08;;;;;;;26.02;14.77;;;;;;;7.62;90.79;102880.13;5037013;28;20025;-88
2021/11/15 06:46:33;;;;;;;22.52;14.43;;;;;;;7.63;90.95;102883.59;5003496;28;20033;-87
2021/11/15 06:48:59;;;;;;;23.90;14.60;;;;;;;7.64;91.02;102878.41;5038584;28;20047;-87
2021/11/15 06:51:24;;;;;;;26.65;14.85;;;;;;;7.61;90.67;102875.75;5006026;28;20460;-88
2021/11/15 06:53:50;;;;;;;27.55;15.10;;;;;;;7.61;90.67;102877.50;5038597;28;20025;-87
2021/11/15 06:56:15;;;;;;;29.02;15.10;;;;;;;7.60;90.76;102876.63;5022039;28;20076;-87
2021/11/15 06:58:40;;;;;;;25.90;14.90;;;;;;;7.59;90.87;102874.03;5037179;28;20043;-87
2021/11/15 07:01:06;;;;;;;21.70;13.82;;;;;;;7.58;90.76;102875.75;5046672;28;20052;-87
2021/11/15 07:03:32;;;;;;;22.98;14.48;;;;;;;7.59;90.65;102881.84;5054676;28;20041;-87
2021/11/15 07:05:58;;;;;;;23.65;13.55;;;;;;;7.58;90.52;102888.78;5021865;28;20327;-87
2021/11/15 07:08:23;;;;;;;30.20;14.77;;;;;;;7.57;90.75;102891.41;5056067;28;20037;-87
2021/11/15 07:10:49;;;;;;;28.52;15.80;;;;;;;7.56;90.73;102890.50;5056647;28;20059;-88
2021/11/15 07:13:15;;;;;;;23.92;14.38;;;;;;;7.57;90.68;102901.84;5018475;28;20044;-87
2021/11/15 07:15:41;;;;;;;25.83;14.30;;;;;;;7.55;90.37;102911.34;5021526;28;20348;-87
2021/11/15 07:18:06;;;;;;;23.25;14.68;;;;;;;7.54;90.27;102907.88;5021596;28;20198;-87
2021/11/15 07:20:32;;;;;;;28.77;14.52;;;;;;;7.54;90.53;102912.25;5055528;28;20079;-88
2021/11/15 07:22:57;;;;;;;27.27;16.27;;;;;;;7.55;91.09;102914.88;5036663;28;20048;-88
2021/11/15 07:25:23;;;;;;;24.50;14.77;;;;;;;7.54;91.11;102907.88;5042152;28;20047;-87
2021/11/15 07:27:51;;;;;;;23.48;14.18;;;;;;;7.53;91.03;102910.47;5025120;28;20109;-87
2021/11/15 07:30:16;;;;;;;27.58;15.57;;;;;;;7.52;90.88;102911.38;5059524;28;20059;-88
2021/11/15 07:32:42;;;;;;;25.30;14.82;;;;;;;7.55;91.52;102906.16;5033422;28;20041;-87
2021/11/15 07:35:07;;;;;;;29.73;15.85;;;;;;;7.54;91.50;102907.03;5065554;28;20036;-88
2021/11/15 07:37:33;;;;;;;26.40;14.48;;;;;;;7.49;91.05;102913.09;5023929;28;20328;-88
2021/11/15 07:39:58;;;;;;;31.13;15.38;;;;;;;7.49;91.11;102912.19;5059806;28;20241;-88
2021/11/15 07:42:24;;;;;;;32.80;16.70;;;;;;;7.52;91.30;102911.38;5024875;28;20107;-87
2021/11/15 07:44:50;;;;;;;26.38;15.32;;;;;;;7.48;91.00;102915.69;5022880;28;20067;-88
2021/11/15 07:47:15;;;;;;;26.30;15.02;;;;;;;7.48;90.67;102910.47;5023347;28;20032;-88
2021/11/15 07:49:41;;;;;;;26.75;15.80;;;;;;;7.49;91.18;102902.66;5011001;28;20135;-87
2021/11/15 07:52:06;;;;;;;31.45;16.23;;;;;;;7.52;91.53;102911.38;5004604;28;20028;-88
2021/11/15 07:54:32;;;;;;;29.42;16.98;;;;;;;7.50;91.56;102911.34;4998688;28;20029;-88
2021/11/15 07:56:57;;;;;;;31.45;17.10;;;;;;;7.50;91.21;102911.34;5012057;28;20234;-87
2021/11/15 07:59:23;;;;;;;28.75;16.65;;;;;;;7.51;91.70;102913.06;5023434;28;20055;-88
2021/11/15 08:01:48;;;;;;;30.88;16.27;;;;;;;7.48;91.75;102903.53;5012535;28;20099;-87
2021/11/15 08:04:16;;;;;;;30.63;17.55;;;;;;;7.47;91.44;102898.28;5030862;28;20048;-88
2021/11/15 08:06:42;;;;;;;40.85;17.38;;;;;;;7.49;91.91;102905.28;5035286;28;20079;-88
2021/11/15 08:09:07;;;;;;;32.42;18.25;;;;;;;7.49;91.74;102909.59;5017028;28;20284;-87
2021/11/15 08:11:33;;;;;;;28.75;17.35;;;;;;;7.48;92.02;102894.84;5021778;28;20321;-87
2021/11/15 08:13:58;;;;;;;30.80;18.10;;;;;;;7.47;92.14;102904.38;5025934;28;20051;-87
2021/11/15 08:16:24;;;;;;;29.92;17.58;;;;;;;7.46;91.23;102901.78;5055447;28;20279;-86
2021/11/15 08:18:49;;;;;;;27.88;16.88;;;;;;;7.46;91.02;102899.16;5003427;28;20092;-87
2021/11/15 08:21:18;;;;;;;32.28;17.25;;;;;;;7.42;90.71;102906.09;5006322;28;20040;-87
2021/11/15 08:23:47;;;;;;;30.08;16.92;;;;;;;7.42;90.53;102908.72;5024097;28;20044;-88
2021/11/15 08:26:35;;;;;;;30.85;17.08;;;;;;;7.43;90.99;102900.00;5029016;28;20059;-87
2021/11/15 08:29:07;;;;;;;30.27;17.00;;;;;;;7.45;91.53;102907.84;5036197;28;20203;-88
2021/11/15 08:31:32;;;;;;;27.80;16.58;;;;;;;7.43;91.53;102902.63;5059725;28;20083;-87
2021/11/15 08:33:58;;;;;;;29.35;16.65;;;;;;;7.41;91.43;102899.13;5037842;28;20032;-87
2021/11/15 08:36:23;;;;;;;27.90;16.63;;;;;;;7.42;91.68;102900.88;5055902;28;20348;-87
2021/11/15 08:39:06;;;;;;;34.05;17.20;;;;;;;7.40;91.67;102901.72;5024666;28;20040;-87
2021/11/15 08:41:35;;;;;;;25.75;16.35;;;;;;;7.39;91.59;102902.59;5002172;28;20063;-87
2021/11/15 08:44:02;;;;;;;31.02;17.08;;;;;;;7.38;91.21;102901.72;5002780;28;20324;-87
2021/11/15 08:46:28;;;;;;;30.77;17.02;;;;;;;7.36;90.76;102897.38;5055070;28;20272;-88
2021/11/15 08:48:54;;;;;;;28.38;16.33;;;;;;;7.33;90.70;102890.41;5037855;28;20298;-88
2021/11/15 08:51:20;;;;;;;28.45;16.73;;;;;;;7.36;91.27;102900.84;5037143;28;20051;-88
2021/11/15 08:53:46;;;;;;;31.95;18.10;;;;;;;7.32;90.63;102895.63;5038280;28;20299;-87
2021/11/15 08:56:11;;;;;;;30.13;17.00;;;;;;;7.32;90.81;102896.47;5032248;28;20064;-88
2021/11/15 08:58:37;;;;;;;29.83;17.25;;;;;;;7.29;90.42;102899.06;5020589;28;20252;-88
2021/11/15 09:01:03;;;;;;;29.23;16.42;;;;;;;7.32;91.18;102898.22;5018826;28;20045;-88
2021/11/15 09:03:28;;;;;;;28.50;16.17;;;;;;;7.29;91.25;102902.56;5007174;28;20039;-88
2021/11/15 09:05:54;;;;;;;29.27;15.23;;;;;;;7.27;90.59;102900.78;5054750;28;20071;-88
2021/11/15 09:08:20;;;;;;;32.47;15.30;;;;;;;7.27;90.79;102906.00;5022918;28;20217;-88
2021/11/15 09:10:46;;;;;;;27.95;15.68;;;;;;;7.21;90.57;102899.00;5021479;28;20419;-88
2021/11/15 09:13:12;;;;;;;26.08;15.05;;;;;;;7.23;90.81;102906.84;5003201;28;20041;-87
2021/11/15 09:15:38;;;;;;;29.83;15.68;;;;;;;7.18;89.91;102899.00;5021188;28;20112;-89
2021/11/15 09:18:03;;;;;;;26.30;15.65;;;;;;;7.20;90.86;102901.59;5021289;28;20279;-88
2021/11/15 09:20:29;;;;;;;28.83;14.70;;;;;;;7.18;90.67;102899.00;5036789;28;20055;-88
2021/11/15 09:22:54;;;;;;;30.50;15.52;;;;;;;7.21;91.18;102903.38;5003047;28;20347;-87
2021/11/15 09:25:20;;;;;;;30.45;16.13;;;;;;;7.20;91.25;102905.06;5019337;28;20040;-88
2021/11/15 09:27:45;;;;;;;26.23;14.77;;;;;;;7.15;90.81;102904.19;5019865;28;20037;-87
2021/11/15 09:30:11;;;;;;;26.30;14.98;;;;;;;7.17;90.54;102901.56;5017961;28;20044;-88
2021/11/15 09:32:37;;;;;;;28.90;16.25;;;;;;;7.19;90.89;102890.31;5031670;28;20047;-87
2021/11/15 09:35:02;;;;;;;27.98;15.48;;;;;;;7.21;91.67;102891.19;5038036;28;20037;-88
2021/11/15 09:37:28;;;;;;;27.63;15.23;;;;;;;7.24;91.97;102890.34;5036239;28;20045;-87
2021/11/15 09:39:55;;;;;;;33.70;16.25;;;;;;;7.22;91.90;102889.44;5055353;28;20044;-88
2021/11/15 09:42:21;;;;;;;29.92;15.73;;;;;;;7.18;90.83;102891.16;5034761;28;20455;-88
2021/11/15 09:44:46;;;;;;;30.17;16.25;;;;;;;7.16;90.80;102892.91;5020920;28;20083;-87
2021/11/15 09:47:11;;;;;;;29.65;16.20;;;;;;;7.17;90.97;102888.53;5014374;28;20033;-88
2021/11/15 09:49:37;;;;;;;30.00;15.70;;;;;;;7.19;91.26;102882.50;5004090;28;20346;-87
2021/11/15 09:52:03;;;;;;;30.05;16.50;;;;;;;7.22;91.83;102876.41;5020711;28;20107;-88
2021/11/15 09:54:28;;;;;;;28.90;15.32;;;;;;;7.18;91.15;102874.66;5020553;28;20347;-88
2021/11/15 09:56:53;;;;;;;30.08;16.50;;;;;;;7.20;91.07;102876.41;5052061;28;20052;-88
2021/11/15 09:59:19;;;;;;;32.85;17.10;;;;;;;7.18;90.33;102875.53;5042218;28;20041;-88
2021/11/15 10:01:48;;;;;;;32.30;16.90;;;;;;;7.18;90.79;102872.94;5053257;28;20294;-88
2021/11/15 10:04:14;;;;;;;30.02;15.98;;;;;;;7.21;91.40;102879.91;5004697;28;20079;-87
2021/11/15 10:06:43;;;;;;;36.67;17.20;;;;;;;7.22;91.91;102876.41;5037156;28;20028;-88
2021/11/15 10:09:09;;;;;;;28.98;15.48;;;;;;;7.18;90.62;102883.34;5056300;28;20060;-88
2021/11/15 10:11:45;;;;;;;29.15;16.25;;;;;;;7.18;90.93;102879.88;5022593;28;20043;-88
2021/11/15 10:14:11;;;;;;;29.35;16.65;;;;;;;7.18;90.72;102885.97;5038429;28;20045;-88
2021/11/15 10:16:38;;;;;;;30.15;15.75;;;;;;;7.18;91.32;102893.78;5019322;28;20029;-88
2021/11/15 10:19:05;;;;;;;33.13;17.63;;;;;;;7.16;90.57;102884.22;5037986;28;20112;-88
2021/11/15 10:21:35;;;;;;;31.75;16.88;;;;;;;7.11;90.32;102895.50;5002383;28;20041;-87
2021/11/15 10:24:14;;;;;;;27.08;16.00;;;;;;;7.13;90.60;102897.22;5039145;28;20056;-88
2021/11/15 10:26:55;;;;;;;29.95;17.02;;;;;;;7.13;90.58;102892.91;5052605;28;20583;-87
2021/11/15 10:29:33;;;;;;;32.15;16.98;;;;;;;7.09;90.22;102880.69;5038354;28;20029;-87
2021/11/15 10:32:02;;;;;;;27.88;16.58;;;;;;;7.09;90.27;102884.19;5021824;28;20040;-88
2021/11/15 10:34:29;;;;;;;31.60;17.15;;;;;;;7.15;91.12;102879.84;5055782;28;20037;-88
2021/11/15 10:36:57;;;;;;;38.28;17.95;;;;;;;7.17;91.74;102875.53;5019650;28;20044;-88
2021/11/15 10:39:29;;;;;;;30.75;16.80;;;;;;;7.17;91.35;102883.34;5032729;28;20043;-88
2021/11/15 10:42:04;;;;;;;33.35;17.42;;;;;;;7.19;91.44;102884.25;5013318;28;20052;-87
2021/11/15 10:44:30;;;;;;;36.53;18.17;;;;;;;7.17;91.21;102878.13;5021021;28;20033;-88
2021/11/15 10:46:55;;;;;;;31.27;18.13;;;;;;;7.17;90.91;102875.53;5037769;28;20048;-88
2021/11/15 10:49:22;;;;;;;34.80;19.00;;;;;;;7.16;91.07;102879.88;5037367;28;20037;-87
2021/11/15 10:51:51;;;;;;;32.35;17.80;;;;;;;7.17;91.07;102879.03;5004373;28;20018;-88
2021/11/15 10:54:37;;;;;;;34.58;17.80;;;;;;;7.13;90.38;102885.09;5036051;28;20045;-88
2021/11/15 10:57:32;;;;;;;29.73;17.02;;;;;;;7.16;90.92;102879.88;5018443;28;20059;-88
2021/11/15 11:00:07;;;;;;;30.33;17.05;;;;;;;7.16;91.03;102866.84;5057829;28;20033;-88
2021/11/15 11:02:46;;;;;;;32.00;17.83;;;;;;;7.16;91.13;102869.44;5057212;28;20053;-88
2021/11/15 11:05:14;;;;;;;29.20;17.15;;;;;;;7.21;91.40;102864.28;5038950;28;20351;-87
2021/11/15 11:07:40;;;;;;;26.17;15.68;;;;;;;7.15;90.56;102859.91;5039907;28;20025;-88
2021/11/15 11:10:06;;;;;;;30.90;15.63;;;;;;;7.20;91.48;102858.16;5041290;28;20091;-88
2021/11/15 11:12:36;;;;;;;30.85;17.27;;;;;;;7.21;92.21;102857.31;5040600;28;20032;-88
2021/11/15 11:15:36;;;;;;;31.83;16.65;;;;;;;7.22;91.92;102852.97;5041910;28;20041;-88